sensor_id;sensor_type;location;lat;lon;timestamp;P1;durP1;ratioP1;P2;durP2;ratioP2
12288;SDS011;6207;49.308;7.336;2023-02-28T00:00:52;11.13;;;10.63;;
12288;SDS011;6207;49.308;7.336;2023-02-28T00:03:19;11.30;;;10.80;;
12288;SDS011;6207;49.308;7.336;2023-02-28T00:05:46;11.70;;;11.10;;
12288;SDS011;6207;49.308;7.336;2023-02-28T00:08:12;12.10;;;11.40;;
12288;SDS011;6207;49.308;7.336;2023-02-28T00:10:39;11.63;;;11.03;;
12288;SDS011;6207;49.308;7.336;2023-02-28T00:13:06;11.77;;;11.17;;
12288;SDS011;6207;49.308;7.336;2023-02-28T00:15:33;11.77;;;11.20;;
12288;SDS011;6207;49.308;7.336;2023-02-28T00:18:01;11.77;;;11.17;;
12288;SDS011;6207;49.308;7.336;2023-02-28T00:20:29;12.17;;;11.47;;
12288;SDS011;6207;49.308;7.336;2023-02-28T00:22:55;11.90;;;11.30;;
12288;SDS011;6207;49.308;7.336;2023-02-28T00:25:23;12.27;;;11.67;;
12288;SDS011;6207;49.308;7.336;2023-02-28T00:27:51;11.50;;;10.90;;
12288;SDS011;6207;49.308;7.336;2023-02-28T00:30:21;11.80;;;11.20;;
12288;SDS011;6207;49.308;7.336;2023-02-28T00:32:49;11.30;;;10.80;;
12288;SDS011;6207;49.308;7.336;2023-02-28T00:35:16;11.67;;;11.07;;
12288;SDS011;6207;49.308;7.336;2023-02-28T00:37:43;12.33;;;11.73;;
12288;SDS011;6207;49.308;7.336;2023-02-28T00:40:10;12.70;;;12.00;;
12288;SDS011;6207;49.308;7.336;2023-02-28T00:42:38;12.63;;;12.03;;
12288;SDS011;6207;49.308;7.336;2023-02-28T00:45:05;12.20;;;11.60;;
12288;SDS011;6207;49.308;7.336;2023-02-28T00:47:34;11.80;;;11.10;;
12288;SDS011;6207;49.308;7.336;2023-02-28T00:50:01;11.73;;;11.23;;
12288;SDS011;6207;49.308;7.336;2023-02-28T00:52:29;11.60;;;11.10;;
12288;SDS011;6207;49.308;7.336;2023-02-28T00:54:56;11.07;;;10.57;;
12288;SDS011;6207;49.308;7.336;2023-02-28T00:57:22;11.90;;;11.30;;
12288;SDS011;6207;49.308;7.336;2023-02-28T00:59:49;11.87;;;11.27;;
12288;SDS011;6207;49.308;7.336;2023-02-28T01:02:16;11.30;;;10.80;;
12288;SDS011;6207;49.308;7.336;2023-02-28T01:04:44;11.43;;;10.83;;
12288;SDS011;6207;49.308;7.336;2023-02-28T01:07:10;11.63;;;11.03;;
12288;SDS011;6207;49.308;7.336;2023-02-28T01:09:37;11.70;;;11.10;;
12288;SDS011;6207;49.308;7.336;2023-02-28T01:12:04;11.87;;;11.27;;
12288;SDS011;6207;49.308;7.336;2023-02-28T01:14:30;11.93;;;11.23;;
12288;SDS011;6207;49.308;7.336;2023-02-28T01:16:57;11.10;;;10.60;;
12288;SDS011;6207;49.308;7.336;2023-02-28T01:19:24;11.70;;;11.10;;
12288;SDS011;6207;49.308;7.336;2023-02-28T01:21:50;11.50;;;10.90;;
12288;SDS011;6207;49.308;7.336;2023-02-28T01:24:17;11.30;;;10.80;;
12288;SDS011;6207;49.308;7.336;2023-02-28T01:26:44;11.60;;;10.83;;
12288;SDS011;6207;49.308;7.336;2023-02-28T01:29:11;11.70;;;11.10;;
12288;SDS011;6207;49.308;7.336;2023-02-28T01:31:38;11.60;;;11.00;;
12288;SDS011;6207;49.308;7.336;2023-02-28T01:34:05;11.47;;;10.87;;
12288;SDS011;6207;49.308;7.336;2023-02-28T01:36:31;11.80;;;11.10;;
12288;SDS011;6207;49.308;7.336;2023-02-28T01:38:58;11.57;;;10.97;;
12288;SDS011;6207;49.308;7.336;2023-02-28T01:41:26;11.67;;;11.07;;
12288;SDS011;6207;49.308;7.336;2023-02-28T01:43:56;11.50;;;10.80;;
12288;SDS011;6207;49.308;7.336;2023-02-28T01:46:25;12.40;;;11.80;;
12288;SDS011;6207;49.308;7.336;2023-02-28T01:48:58;12.40;;;11.70;;
12288;SDS011;6207;49.308;7.336;2023-02-28T01:51:28;11.87;;;11.20;;
12288;SDS011;6207;49.308;7.336;2023-02-28T01:54:13;11.87;;;11.27;;
12288;SDS011;6207;49.308;7.336;2023-02-28T01:56:44;11.80;;;11.20;;
12288;SDS011;6207;49.308;7.336;2023-02-28T01:59:18;12.27;;;11.63;;
12288;SDS011;6207;49.308;7.336;2023-02-28T02:01:53;11.97;;;11.37;;
12288;SDS011;6207;49.308;7.336;2023-02-28T02:04:21;12.03;;;11.43;;
12288;SDS011;6207;49.308;7.336;2023-02-28T02:06:52;11.60;;;11.00;;
12288;SDS011;6207;49.308;7.336;2023-02-28T02:09:19;12.37;;;11.77;;
12288;SDS011;6207;49.308;7.336;2023-02-28T02:11:45;12.43;;;11.53;;
12288;SDS011;6207;49.308;7.336;2023-02-28T02:14:34;12.60;;;11.80;;
12288;SDS011;6207;49.308;7.336;2023-02-28T02:25:33;12.30;;;11.60;;
12288;SDS011;6207;49.308;7.336;2023-02-28T02:28:21;16.80;;;12.33;;
12288;SDS011;6207;49.308;7.336;2023-02-28T02:30:58;12.97;;;12.07;;
12288;SDS011;6207;49.308;7.336;2023-02-28T02:42:04;12.10;;;11.33;;
12288;SDS011;6207;49.308;7.336;2023-02-28T02:44:40;12.60;;;11.90;;
12288;SDS011;6207;49.308;7.336;2023-02-28T02:47:14;12.03;;;11.43;;
12288;SDS011;6207;49.308;7.336;2023-02-28T02:49:47;12.40;;;11.70;;
12288;SDS011;6207;49.308;7.336;2023-02-28T02:52:17;12.10;;;11.50;;
12288;SDS011;6207;49.308;7.336;2023-02-28T02:54:47;12.37;;;11.77;;
12288;SDS011;6207;49.308;7.336;2023-02-28T02:57:21;12.00;;;11.40;;
12288;SDS011;6207;49.308;7.336;2023-02-28T02:59:51;12.57;;;11.97;;
12288;SDS011;6207;49.308;7.336;2023-02-28T03:02:21;12.60;;;11.90;;
12288;SDS011;6207;49.308;7.336;2023-02-28T03:04:53;12.67;;;11.83;;
12288;SDS011;6207;49.308;7.336;2023-02-28T03:07:28;12.73;;;11.93;;
12288;SDS011;6207;49.308;7.336;2023-02-28T03:09:55;11.33;;;10.83;;
12288;SDS011;6207;49.308;7.336;2023-02-28T03:12:25;12.77;;;12.00;;
12288;SDS011;6207;49.308;7.336;2023-02-28T03:15:05;13.20;;;12.40;;
12288;SDS011;6207;49.308;7.336;2023-02-28T03:20:38;11.90;;;11.30;;
12288;SDS011;6207;49.308;7.336;2023-02-28T03:25:56;11.63;;;11.03;;
12288;SDS011;6207;49.308;7.336;2023-02-28T03:28:36;12.67;;;11.87;;
12288;SDS011;6207;49.308;7.336;2023-02-28T03:31:19;11.63;;;11.03;;
12288;SDS011;6207;49.308;7.336;2023-02-28T03:36:45;12.23;;;11.53;;
12288;SDS011;6207;49.308;7.336;2023-02-28T03:39:31;13.60;;;12.80;;
12288;SDS011;6207;49.308;7.336;2023-02-28T03:42:09;12.87;;;12.07;;
12288;SDS011;6207;49.308;7.336;2023-02-28T03:44:45;11.77;;;11.17;;
12288;SDS011;6207;49.308;7.336;2023-02-28T03:47:33;12.93;;;12.23;;
12288;SDS011;6207;49.308;7.336;2023-02-28T03:50:07;12.13;;;11.47;;
12288;SDS011;6207;49.308;7.336;2023-02-28T03:52:39;12.50;;;11.80;;
12288;SDS011;6207;49.308;7.336;2023-02-28T03:55:16;13.27;;;12.40;;
12288;SDS011;6207;49.308;7.336;2023-02-28T03:57:56;12.77;;;11.97;;
12288;SDS011;6207;49.308;7.336;2023-02-28T04:00:28;12.90;;;12.10;;
12288;SDS011;6207;49.308;7.336;2023-02-28T04:03:00;12.27;;;11.40;;
12288;SDS011;6207;49.308;7.336;2023-02-28T04:05:28;12.33;;;11.73;;
12288;SDS011;6207;49.308;7.336;2023-02-28T04:08:06;12.10;;;11.37;;
12288;SDS011;6207;49.308;7.336;2023-02-28T04:10:34;12.53;;;11.63;;
12288;SDS011;6207;49.308;7.336;2023-02-28T04:13:01;12.60;;;11.90;;
12288;SDS011;6207;49.308;7.336;2023-02-28T04:15:27;12.47;;;11.73;;
12288;SDS011;6207;49.308;7.336;2023-02-28T04:17:54;12.80;;;12.03;;
12288;SDS011;6207;49.308;7.336;2023-02-28T04:20:20;12.40;;;11.70;;
12288;SDS011;6207;49.308;7.336;2023-02-28T04:22:47;12.50;;;11.73;;
12288;SDS011;6207;49.308;7.336;2023-02-28T04:25:14;12.20;;;11.50;;
12288;SDS011;6207;49.308;7.336;2023-02-28T04:27:41;12.47;;;11.77;;
12288;SDS011;6207;49.308;7.336;2023-02-28T04:30:08;11.57;;;10.93;;
12288;SDS011;6207;49.308;7.336;2023-02-28T04:32:35;11.87;;;11.17;;
12288;SDS011;6207;49.308;7.336;2023-02-28T04:35:01;12.17;;;11.47;;
12288;SDS011;6207;49.308;7.336;2023-02-28T04:37:28;12.10;;;11.40;;
12288;SDS011;6207;49.308;7.336;2023-02-28T04:39:55;12.70;;;11.93;;
12288;SDS011;6207;49.308;7.336;2023-02-28T04:42:22;13.07;;;12.27;;
12288;SDS011;6207;49.308;7.336;2023-02-28T04:44:48;12.33;;;11.63;;
12288;SDS011;6207;49.308;7.336;2023-02-28T04:47:15;12.27;;;11.57;;
12288;SDS011;6207;49.308;7.336;2023-02-28T04:49:42;13.27;;;12.47;;
12288;SDS011;6207;49.308;7.336;2023-02-28T04:52:09;11.90;;;11.30;;
12288;SDS011;6207;49.308;7.336;2023-02-28T04:54:36;12.33;;;11.60;;
12288;SDS011;6207;49.308;7.336;2023-02-28T04:57:05;13.43;;;12.43;;
12288;SDS011;6207;49.308;7.336;2023-02-28T04:59:32;13.23;;;12.40;;
12288;SDS011;6207;49.308;7.336;2023-02-28T05:01:59;12.57;;;11.87;;
12288;SDS011;6207;49.308;7.336;2023-02-28T05:04:25;11.90;;;11.20;;
12288;SDS011;6207;49.308;7.336;2023-02-28T05:06:52;12.27;;;11.57;;
12288;SDS011;6207;49.308;7.336;2023-02-28T05:09:19;12.43;;;11.70;;
12288;SDS011;6207;49.308;7.336;2023-02-28T05:11:45;12.17;;;11.47;;
12288;SDS011;6207;49.308;7.336;2023-02-28T05:14:13;12.10;;;11.40;;
12288;SDS011;6207;49.308;7.336;2023-02-28T05:16:40;12.80;;;11.90;;
12288;SDS011;6207;49.308;7.336;2023-02-28T05:19:07;12.37;;;11.70;;
12288;SDS011;6207;49.308;7.336;2023-02-28T05:21:40;12.83;;;12.03;;
12288;SDS011;6207;49.308;7.336;2023-02-28T05:24:13;13.10;;;12.30;;
12288;SDS011;6207;49.308;7.336;2023-02-28T05:26:41;12.80;;;12.07;;
12288;SDS011;6207;49.308;7.336;2023-02-28T05:29:09;12.53;;;11.70;;
12288;SDS011;6207;49.308;7.336;2023-02-28T05:31:36;12.87;;;12.17;;
12288;SDS011;6207;49.308;7.336;2023-02-28T05:34:03;11.97;;;11.30;;
12288;SDS011;6207;49.308;7.336;2023-02-28T05:36:30;13.50;;;12.17;;
12288;SDS011;6207;49.308;7.336;2023-02-28T05:38:57;13.40;;;12.37;;
12288;SDS011;6207;49.308;7.336;2023-02-28T05:41:23;13.03;;;12.23;;
12288;SDS011;6207;49.308;7.336;2023-02-28T05:43:52;12.43;;;11.70;;
12288;SDS011;6207;49.308;7.336;2023-02-28T05:46:19;11.80;;;11.20;;
12288;SDS011;6207;49.308;7.336;2023-02-28T05:48:46;12.60;;;11.80;;
12288;SDS011;6207;49.308;7.336;2023-02-28T05:51:14;13.80;;;12.90;;
12288;SDS011;6207;49.308;7.336;2023-02-28T05:53:41;13.40;;;12.60;;
12288;SDS011;6207;49.308;7.336;2023-02-28T05:56:07;13.10;;;12.10;;
12288;SDS011;6207;49.308;7.336;2023-02-28T05:58:34;15.30;;;14.17;;
12288;SDS011;6207;49.308;7.336;2023-02-28T06:01:19;12.30;;;11.63;;
12288;SDS011;6207;49.308;7.336;2023-02-28T06:03:48;12.47;;;11.77;;
12288;SDS011;6207;49.308;7.336;2023-02-28T06:06:15;13.13;;;12.33;;
12288;SDS011;6207;49.308;7.336;2023-02-28T06:08:42;12.37;;;11.67;;
12288;SDS011;6207;49.308;7.336;2023-02-28T06:11:10;12.43;;;11.73;;
12288;SDS011;6207;49.308;7.336;2023-02-28T06:13:37;13.93;;;13.13;;
12288;SDS011;6207;49.308;7.336;2023-02-28T06:16:04;12.87;;;12.17;;
12288;SDS011;6207;49.308;7.336;2023-02-28T06:18:31;12.97;;;12.23;;
12288;SDS011;6207;49.308;7.336;2023-02-28T06:20:58;13.67;;;12.67;;
12288;SDS011;6207;49.308;7.336;2023-02-28T06:23:24;12.73;;;11.93;;
12288;SDS011;6207;49.308;7.336;2023-02-28T06:25:51;13.60;;;12.80;;
12288;SDS011;6207;49.308;7.336;2023-02-28T06:28:19;11.97;;;11.27;;
12288;SDS011;6207;49.308;7.336;2023-02-28T06:30:46;13.80;;;12.80;;
12288;SDS011;6207;49.308;7.336;2023-02-28T06:33:12;13.10;;;12.33;;
12288;SDS011;6207;49.308;7.336;2023-02-28T06:35:39;14.00;;;13.10;;
12288;SDS011;6207;49.308;7.336;2023-02-28T06:38:09;14.10;;;13.20;;
12288;SDS011;6207;49.308;7.336;2023-02-28T06:40:36;12.87;;;12.17;;
12288;SDS011;6207;49.308;7.336;2023-02-28T06:43:03;11.70;;;11.10;;
12288;SDS011;6207;49.308;7.336;2023-02-28T06:45:30;12.50;;;11.80;;
12288;SDS011;6207;49.308;7.336;2023-02-28T06:47:56;13.83;;;13.03;;
12288;SDS011;6207;49.308;7.336;2023-02-28T06:50:24;13.60;;;12.70;;
12288;SDS011;6207;49.308;7.336;2023-02-28T06:52:50;13.40;;;12.60;;
12288;SDS011;6207;49.308;7.336;2023-02-28T06:55:20;13.63;;;12.73;;
12288;SDS011;6207;49.308;7.336;2023-02-28T06:57:46;12.50;;;11.70;;
12288;SDS011;6207;49.308;7.336;2023-02-28T07:00:13;14.13;;;13.03;;
12288;SDS011;6207;49.308;7.336;2023-02-28T07:02:40;13.00;;;12.23;;
12288;SDS011;6207;49.308;7.336;2023-02-28T07:05:07;13.07;;;12.10;;
12288;SDS011;6207;49.308;7.336;2023-02-28T07:07:34;13.47;;;12.60;;
12288;SDS011;6207;49.308;7.336;2023-02-28T07:10:02;13.17;;;12.47;;
12288;SDS011;6207;49.308;7.336;2023-02-28T07:12:29;13.20;;;12.40;;
12288;SDS011;6207;49.308;7.336;2023-02-28T07:14:56;13.67;;;12.70;;
12288;SDS011;6207;49.308;7.336;2023-02-28T07:17:22;13.43;;;12.57;;
12288;SDS011;6207;49.308;7.336;2023-02-28T07:19:49;13.37;;;12.57;;
12288;SDS011;6207;49.308;7.336;2023-02-28T07:22:16;13.83;;;13.03;;
12288;SDS011;6207;49.308;7.336;2023-02-28T07:24:43;13.70;;;12.90;;
12288;SDS011;6207;49.308;7.336;2023-02-28T07:27:09;13.73;;;12.83;;
12288;SDS011;6207;49.308;7.336;2023-02-28T07:29:36;13.00;;;12.20;;
12288;SDS011;6207;49.308;7.336;2023-02-28T07:32:04;14.20;;;13.20;;
12288;SDS011;6207;49.308;7.336;2023-02-28T07:34:31;13.70;;;12.70;;
12288;SDS011;6207;49.308;7.336;2023-02-28T07:36:57;12.73;;;12.07;;
12288;SDS011;6207;49.308;7.336;2023-02-28T07:39:24;14.20;;;13.30;;
12288;SDS011;6207;49.308;7.336;2023-02-28T07:41:51;14.67;;;13.77;;
12288;SDS011;6207;49.308;7.336;2023-02-28T07:44:17;14.50;;;13.60;;
12288;SDS011;6207;49.308;7.336;2023-02-28T07:46:45;13.50;;;12.80;;
12288;SDS011;6207;49.308;7.336;2023-02-28T07:49:11;13.80;;;12.97;;
12288;SDS011;6207;49.308;7.336;2023-02-28T07:51:38;14.40;;;13.47;;
12288;SDS011;6207;49.308;7.336;2023-02-28T07:54:05;14.20;;;13.30;;
12288;SDS011;6207;49.308;7.336;2023-02-28T07:56:32;15.33;;;14.40;;
12288;SDS011;6207;49.308;7.336;2023-02-28T07:58:58;14.60;;;13.73;;
12288;SDS011;6207;49.308;7.336;2023-02-28T08:01:25;14.87;;;13.90;;
12288;SDS011;6207;49.308;7.336;2023-02-28T08:03:52;12.50;;;11.90;;
12288;SDS011;6207;49.308;7.336;2023-02-28T08:06:21;13.30;;;12.50;;
12288;SDS011;6207;49.308;7.336;2023-02-28T08:08:49;15.17;;;14.13;;
12288;SDS011;6207;49.308;7.336;2023-02-28T08:11:17;14.43;;;13.57;;
12288;SDS011;6207;49.308;7.336;2023-02-28T08:13:44;14.43;;;13.53;;
12288;SDS011;6207;49.308;7.336;2023-02-28T08:16:12;13.87;;;12.97;;
12288;SDS011;6207;49.308;7.336;2023-02-28T08:18:48;13.13;;;12.33;;
12288;SDS011;6207;49.308;7.336;2023-02-28T08:21:16;14.67;;;13.60;;
12288;SDS011;6207;49.308;7.336;2023-02-28T08:23:46;13.90;;;13.00;;
12288;SDS011;6207;49.308;7.336;2023-02-28T08:26:15;14.27;;;13.23;;
12288;SDS011;6207;49.308;7.336;2023-02-28T08:28:43;14.60;;;13.70;;
12288;SDS011;6207;49.308;7.336;2023-02-28T08:31:11;13.50;;;12.70;;
12288;SDS011;6207;49.308;7.336;2023-02-28T08:33:40;13.90;;;13.00;;
12288;SDS011;6207;49.308;7.336;2023-02-28T08:36:08;14.37;;;13.57;;
12288;SDS011;6207;49.308;7.336;2023-02-28T08:38:35;14.60;;;13.70;;
12288;SDS011;6207;49.308;7.336;2023-02-28T08:41:04;14.30;;;13.40;;
12288;SDS011;6207;49.308;7.336;2023-02-28T08:43:33;14.00;;;13.20;;
12288;SDS011;6207;49.308;7.336;2023-02-28T08:46:00;14.27;;;13.27;;
12288;SDS011;6207;49.308;7.336;2023-02-28T08:48:28;14.50;;;13.70;;
12288;SDS011;6207;49.308;7.336;2023-02-28T08:50:57;14.23;;;13.43;;
12288;SDS011;6207;49.308;7.336;2023-02-28T08:53:33;14.50;;;13.50;;
12288;SDS011;6207;49.308;7.336;2023-02-28T08:56:00;14.90;;;14.00;;
12288;SDS011;6207;49.308;7.336;2023-02-28T08:58:28;14.20;;;13.40;;
12288;SDS011;6207;49.308;7.336;2023-02-28T09:00:55;13.77;;;12.97;;
12288;SDS011;6207;49.308;7.336;2023-02-28T09:03:23;14.27;;;13.30;;
12288;SDS011;6207;49.308;7.336;2023-02-28T09:05:54;14.07;;;13.20;;
12288;SDS011;6207;49.308;7.336;2023-02-28T09:08:23;14.83;;;13.83;;
12288;SDS011;6207;49.308;7.336;2023-02-28T09:10:51;14.07;;;13.27;;
12288;SDS011;6207;49.308;7.336;2023-02-28T09:13:18;14.67;;;13.77;;
12288;SDS011;6207;49.308;7.336;2023-02-28T09:15:45;15.20;;;14.20;;
12288;SDS011;6207;49.308;7.336;2023-02-28T09:18:12;14.50;;;13.60;;
12288;SDS011;6207;49.308;7.336;2023-02-28T09:20:40;14.60;;;13.60;;
12288;SDS011;6207;49.308;7.336;2023-02-28T09:23:08;15.13;;;14.17;;
12288;SDS011;6207;49.308;7.336;2023-02-28T09:25:36;14.63;;;13.57;;
12288;SDS011;6207;49.308;7.336;2023-02-28T09:28:03;14.20;;;13.30;;
12288;SDS011;6207;49.308;7.336;2023-02-28T09:30:30;14.13;;;13.30;;
12288;SDS011;6207;49.308;7.336;2023-02-28T09:32:57;14.27;;;13.23;;
12288;SDS011;6207;49.308;7.336;2023-02-28T09:35:24;14.70;;;13.80;;
12288;SDS011;6207;49.308;7.336;2023-02-28T09:37:52;14.73;;;13.83;;
12288;SDS011;6207;49.308;7.336;2023-02-28T09:40:20;16.17;;;15.07;;
12288;SDS011;6207;49.308;7.336;2023-02-28T09:42:51;14.60;;;13.80;;
12288;SDS011;6207;49.308;7.336;2023-02-28T09:47:59;15.03;;;14.13;;
12288;SDS011;6207;49.308;7.336;2023-02-28T09:50:33;16.67;;;15.67;;
12288;SDS011;6207;49.308;7.336;2023-02-28T09:53:22;15.17;;;14.27;;
12288;SDS011;6207;49.308;7.336;2023-02-28T09:55:58;15.37;;;14.37;;
12288;SDS011;6207;49.308;7.336;2023-02-28T09:58:47;15.43;;;14.43;;
12288;SDS011;6207;49.308;7.336;2023-02-28T10:04:15;15.27;;;14.37;;
12288;SDS011;6207;49.308;7.336;2023-02-28T10:06:48;14.93;;;14.03;;
12288;SDS011;6207;49.308;7.336;2023-02-28T10:09:18;14.70;;;13.80;;
12288;SDS011;6207;49.308;7.336;2023-02-28T10:11:56;16.47;;;15.37;;
12288;SDS011;6207;49.308;7.336;2023-02-28T10:14:28;15.13;;;14.23;;
12288;SDS011;6207;49.308;7.336;2023-02-28T10:16:58;15.43;;;14.47;;
12288;SDS011;6207;49.308;7.336;2023-02-28T10:22:03;14.30;;;13.47;;
12288;SDS011;6207;49.308;7.336;2023-02-28T10:24:44;14.67;;;13.67;;
12288;SDS011;6207;49.308;7.336;2023-02-28T10:27:16;14.03;;;13.13;;
12288;SDS011;6207;49.308;7.336;2023-02-28T10:29:46;14.60;;;13.70;;
12288;SDS011;6207;49.308;7.336;2023-02-28T10:32:20;16.80;;;15.70;;
12288;SDS011;6207;49.308;7.336;2023-02-28T10:37:39;13.23;;;12.53;;
12288;SDS011;6207;49.308;7.336;2023-02-28T10:40:25;15.57;;;14.33;;
12288;SDS011;6207;49.308;7.336;2023-02-28T10:43:03;14.63;;;13.73;;
12288;SDS011;6207;49.308;7.336;2023-02-28T10:45:52;14.50;;;13.60;;
12288;SDS011;6207;49.308;7.336;2023-02-28T10:48:48;14.10;;;13.30;;
12288;SDS011;6207;49.308;7.336;2023-02-28T10:51:26;15.23;;;14.33;;
12288;SDS011;6207;49.308;7.336;2023-02-28T10:54:02;14.80;;;13.90;;
12288;SDS011;6207;49.308;7.336;2023-02-28T10:56:30;14.80;;;13.70;;
12288;SDS011;6207;49.308;7.336;2023-02-28T11:01:47;15.20;;;14.30;;
12288;SDS011;6207;49.308;7.336;2023-02-28T11:06:59;14.93;;;14.03;;
12288;SDS011;6207;49.308;7.336;2023-02-28T11:09:28;15.10;;;14.20;;
12288;SDS011;6207;49.308;7.336;2023-02-28T11:11:59;15.00;;;14.10;;
12288;SDS011;6207;49.308;7.336;2023-02-28T11:14:28;13.87;;;13.07;;
12288;SDS011;6207;49.308;7.336;2023-02-28T11:17:21;14.83;;;13.97;;
12288;SDS011;6207;49.308;7.336;2023-02-28T11:20:02;14.57;;;13.67;;
12288;SDS011;6207;49.308;7.336;2023-02-28T11:22:35;15.10;;;14.10;;
12288;SDS011;6207;49.308;7.336;2023-02-28T11:27:58;15.40;;;14.30;;
12288;SDS011;6207;49.308;7.336;2023-02-28T11:30:41;15.03;;;13.97;;
12288;SDS011;6207;49.308;7.336;2023-02-28T11:36:16;14.17;;;13.27;;
12288;SDS011;6207;49.308;7.336;2023-02-28T11:38:51;14.37;;;13.40;;
12288;SDS011;6207;49.308;7.336;2023-02-28T11:57:35;15.80;;;14.60;;
12288;SDS011;6207;49.308;7.336;2023-02-28T12:08:44;16.63;;;15.43;;
12288;SDS011;6207;49.308;7.336;2023-02-28T12:16:59;15.90;;;14.83;;
12288;SDS011;6207;49.308;7.336;2023-02-28T12:27:34;15.57;;;14.57;;
12288;SDS011;6207;49.308;7.336;2023-02-28T12:30:16;14.83;;;13.73;;
12288;SDS011;6207;49.308;7.336;2023-02-28T12:33:03;15.63;;;14.53;;
12288;SDS011;6207;49.308;7.336;2023-02-28T12:36:02;15.43;;;14.53;;
12288;SDS011;6207;49.308;7.336;2023-02-28T12:41:16;15.33;;;14.40;;
12288;SDS011;6207;49.308;7.336;2023-02-28T12:43:57;15.33;;;14.43;;
12288;SDS011;6207;49.308;7.336;2023-02-28T12:46:32;16.20;;;15.10;;
12288;SDS011;6207;49.308;7.336;2023-02-28T12:49:06;17.07;;;15.90;;
12288;SDS011;6207;49.308;7.336;2023-02-28T12:51:36;16.93;;;15.83;;
12288;SDS011;6207;49.308;7.336;2023-02-28T12:54:07;16.73;;;15.63;;
12288;SDS011;6207;49.308;7.336;2023-02-28T12:59:45;15.93;;;14.93;;
12288;SDS011;6207;49.308;7.336;2023-02-28T13:08:01;16.70;;;15.40;;
12288;SDS011;6207;49.308;7.336;2023-02-28T13:10:49;16.20;;;15.00;;
12288;SDS011;6207;49.308;7.336;2023-02-28T13:13:22;15.97;;;14.87;;
12288;SDS011;6207;49.308;7.336;2023-02-28T13:21:08;15.43;;;14.47;;
12288;SDS011;6207;49.308;7.336;2023-02-28T13:26:23;15.50;;;14.43;;
12288;SDS011;6207;49.308;7.336;2023-02-28T13:34:32;16.10;;;15.00;;
12288;SDS011;6207;49.308;7.336;2023-02-28T13:39:52;16.07;;;14.90;;
12288;SDS011;6207;49.308;7.336;2023-02-28T13:50:23;15.33;;;14.33;;
12288;SDS011;6207;49.308;7.336;2023-02-28T13:55:45;16.90;;;15.80;;
12288;SDS011;6207;49.308;7.336;2023-02-28T13:58:27;15.97;;;14.97;;
12288;SDS011;6207;49.308;7.336;2023-02-28T14:04:14;15.83;;;14.80;;
12288;SDS011;6207;49.308;7.336;2023-02-28T14:07:21;15.93;;;14.83;;
12288;SDS011;6207;49.308;7.336;2023-02-28T14:09:55;15.07;;;14.07;;
12288;SDS011;6207;49.308;7.336;2023-02-28T14:17:59;15.37;;;14.37;;
12288;SDS011;6207;49.308;7.336;2023-02-28T14:20:29;16.47;;;15.30;;
12288;SDS011;6207;49.308;7.336;2023-02-28T14:29:00;15.00;;;14.00;;
12288;SDS011;6207;49.308;7.336;2023-02-28T14:34:45;18.57;;;17.23;;
12288;SDS011;6207;49.308;7.336;2023-02-28T14:37:32;14.20;;;13.30;;
12288;SDS011;6207;49.308;7.336;2023-02-28T14:40:02;15.43;;;14.33;;
12288;SDS011;6207;49.308;7.336;2023-02-28T14:42:32;16.10;;;14.77;;
12288;SDS011;6207;49.308;7.336;2023-02-28T14:44:59;15.87;;;14.77;;
12288;SDS011;6207;49.308;7.336;2023-02-28T14:47:33;14.77;;;13.87;;
12288;SDS011;6207;49.308;7.336;2023-02-28T14:50:02;16.10;;;15.00;;
12288;SDS011;6207;49.308;7.336;2023-02-28T14:52:31;14.83;;;13.70;;
12288;SDS011;6207;49.308;7.336;2023-02-28T14:54:59;15.47;;;14.50;;
12288;SDS011;6207;49.308;7.336;2023-02-28T14:57:50;15.67;;;14.50;;
12288;SDS011;6207;49.308;7.336;2023-02-28T15:02:51;14.97;;;13.90;;
12288;SDS011;6207;49.308;7.336;2023-02-28T15:05:29;17.30;;;16.20;;
12288;SDS011;6207;49.308;7.336;2023-02-28T15:08:16;17.23;;;15.97;;
12288;SDS011;6207;49.308;7.336;2023-02-28T15:10:44;15.97;;;14.93;;
12288;SDS011;6207;49.308;7.336;2023-02-28T15:13:22;14.53;;;13.63;;
12288;SDS011;6207;49.308;7.336;2023-02-28T15:15:56;15.23;;;14.23;;
12288;SDS011;6207;49.308;7.336;2023-02-28T15:18:45;15.33;;;14.33;;
12288;SDS011;6207;49.308;7.336;2023-02-28T15:21:20;16.53;;;15.53;;
12288;SDS011;6207;49.308;7.336;2023-02-28T15:26:29;16.20;;;15.20;;
12288;SDS011;6207;49.308;7.336;2023-02-28T15:29:00;14.87;;;13.93;;
12288;SDS011;6207;49.308;7.336;2023-02-28T15:31:32;14.97;;;13.97;;
12288;SDS011;6207;49.308;7.336;2023-02-28T15:34:43;15.47;;;14.47;;
12288;SDS011;6207;49.308;7.336;2023-02-28T15:42:57;15.13;;;14.07;;
12288;SDS011;6207;49.308;7.336;2023-02-28T15:45:47;16.10;;;14.97;;
12288;SDS011;6207;49.308;7.336;2023-02-28T15:48:59;14.80;;;13.90;;
12288;SDS011;6207;49.308;7.336;2023-02-28T15:53:54;14.83;;;13.80;;
12288;SDS011;6207;49.308;7.336;2023-02-28T15:56:29;15.03;;;14.10;;
12288;SDS011;6207;49.308;7.336;2023-02-28T15:58:59;15.07;;;14.07;;
12288;SDS011;6207;49.308;7.336;2023-02-28T16:01:30;16.03;;;14.90;;
12288;SDS011;6207;49.308;7.336;2023-02-28T16:04:00;14.20;;;13.37;;
12288;SDS011;6207;49.308;7.336;2023-02-28T16:09:05;15.37;;;13.37;;
12288;SDS011;6207;49.308;7.336;2023-02-28T16:11:39;14.70;;;13.60;;
12288;SDS011;6207;49.308;7.336;2023-02-28T16:14:12;16.50;;;15.30;;
12288;SDS011;6207;49.308;7.336;2023-02-28T16:16:46;14.20;;;13.20;;
12288;SDS011;6207;49.308;7.336;2023-02-28T16:19:15;15.63;;;14.30;;
12288;SDS011;6207;49.308;7.336;2023-02-28T16:21:42;15.73;;;14.63;;
12288;SDS011;6207;49.308;7.336;2023-02-28T16:24:09;14.60;;;13.60;;
12288;SDS011;6207;49.308;7.336;2023-02-28T16:26:36;15.10;;;14.00;;
12288;SDS011;6207;49.308;7.336;2023-02-28T16:29:06;15.90;;;14.70;;
12288;SDS011;6207;49.308;7.336;2023-02-28T16:31:34;14.20;;;13.30;;
12288;SDS011;6207;49.308;7.336;2023-02-28T16:34:04;16.77;;;15.60;;
12288;SDS011;6207;49.308;7.336;2023-02-28T16:36:31;18.00;;;16.70;;
12288;SDS011;6207;49.308;7.336;2023-02-28T16:38:58;16.87;;;15.77;;
12288;SDS011;6207;49.308;7.336;2023-02-28T16:41:25;15.40;;;14.37;;
12288;SDS011;6207;49.308;7.336;2023-02-28T16:43:54;16.27;;;15.17;;
12288;SDS011;6207;49.308;7.336;2023-02-28T16:46:35;15.73;;;14.60;;
12288;SDS011;6207;49.308;7.336;2023-02-28T16:49:02;16.00;;;14.83;;
12288;SDS011;6207;49.308;7.336;2023-02-28T16:51:29;16.27;;;15.17;;
12288;SDS011;6207;49.308;7.336;2023-02-28T16:53:59;16.33;;;14.97;;
12288;SDS011;6207;49.308;7.336;2023-02-28T16:56:25;15.70;;;14.73;;
12288;SDS011;6207;49.308;7.336;2023-02-28T16:58:52;15.53;;;14.53;;
12288;SDS011;6207;49.308;7.336;2023-02-28T17:01:26;16.07;;;14.83;;
12288;SDS011;6207;49.308;7.336;2023-02-28T17:03:54;15.87;;;14.80;;
12288;SDS011;6207;49.308;7.336;2023-02-28T17:06:28;15.80;;;14.80;;
12288;SDS011;6207;49.308;7.336;2023-02-28T17:08:57;15.07;;;13.97;;
12288;SDS011;6207;49.308;7.336;2023-02-28T17:11:25;16.00;;;14.83;;
12288;SDS011;6207;49.308;7.336;2023-02-28T17:13:53;16.37;;;15.27;;
12288;SDS011;6207;49.308;7.336;2023-02-28T17:16:22;16.27;;;15.17;;
12288;SDS011;6207;49.308;7.336;2023-02-28T17:18:50;15.50;;;14.30;;
12288;SDS011;6207;49.308;7.336;2023-02-28T17:21:17;15.30;;;14.30;;
12288;SDS011;6207;49.308;7.336;2023-02-28T17:23:44;16.00;;;14.90;;
12288;SDS011;6207;49.308;7.336;2023-02-28T17:26:14;16.30;;;15.00;;
12288;SDS011;6207;49.308;7.336;2023-02-28T17:28:43;16.20;;;14.97;;
12288;SDS011;6207;49.308;7.336;2023-02-28T17:31:10;15.67;;;14.43;;
12288;SDS011;6207;49.308;7.336;2023-02-28T17:33:37;16.37;;;14.93;;